sensor_id;sensor_type;location;lat;lon;timestamp;P1;durP1;ratioP1;P2;durP2;ratioP2
74042;SDS011;62384;53.600;10.040;2023-03-23T00:01:09;8.70;;;5.15;;
74042;SDS011;62384;53.600;10.040;2023-03-23T00:03:37;13.68;;;5.35;;
74042;SDS011;62384;53.600;10.040;2023-03-23T00:06:03;13.18;;;6.68;;
74042;SDS011;62384;53.600;10.040;2023-03-23T00:08:32;12.43;;;5.60;;
74042;SDS011;62384;53.600;10.040;2023-03-23T00:11:02;16.95;;;6.05;;
74042;SDS011;62384;53.600;10.040;2023-03-23T00:13:28;13.65;;;5.75;;
74042;SDS011;62384;53.600;10.040;2023-03-23T00:15:54;12.88;;;6.15;;
74042;SDS011;62384;53.600;10.040;2023-03-23T00:18:21;11.98;;;6.05;;
74042;SDS011;62384;53.600;10.040;2023-03-23T00:20:48;17.10;;;7.72;;
74042;SDS011;62384;53.600;10.040;2023-03-23T00:23:15;14.68;;;7.38;;
74042;SDS011;62384;53.600;10.040;2023-03-23T00:25:44;13.20;;;6.80;;
74042;SDS011;62384;53.600;10.040;2023-03-23T00:28:10;16.30;;;7.43;;
74042;SDS011;62384;53.600;10.040;2023-03-23T00:30:37;19.08;;;7.82;;
74042;SDS011;62384;53.600;10.040;2023-03-23T00:33:03;18.13;;;8.55;;
74042;SDS011;62384;53.600;10.040;2023-03-23T00:35:29;18.52;;;8.10;;
74042;SDS011;62384;53.600;10.040;2023-03-23T00:37:56;17.90;;;8.15;;
74042;SDS011;62384;53.600;10.040;2023-03-23T00:40:23;20.17;;;9.02;;
74042;SDS011;62384;53.600;10.040;2023-03-23T00:42:49;17.50;;;8.30;;
74042;SDS011;62384;53.600;10.040;2023-03-23T00:45:14;14.55;;;7.68;;
74042;SDS011;62384;53.600;10.040;2023-03-23T00:47:39;19.08;;;8.90;;
74042;SDS011;62384;53.600;10.040;2023-03-23T00:50:06;16.50;;;8.57;;
74042;SDS011;62384;53.600;10.040;2023-03-23T00:52:32;20.42;;;9.10;;
74042;SDS011;62384;53.600;10.040;2023-03-23T00:54:58;25.23;;;10.05;;
74042;SDS011;62384;53.600;10.040;2023-03-23T00:57:23;19.38;;;9.30;;
74042;SDS011;62384;53.600;10.040;2023-03-23T00:59:52;21.90;;;8.50;;
74042;SDS011;62384;53.600;10.040;2023-03-23T01:02:17;17.90;;;8.90;;
74042;SDS011;62384;53.600;10.040;2023-03-23T01:04:44;19.00;;;8.35;;
74042;SDS011;62384;53.600;10.040;2023-03-23T01:07:10;21.70;;;8.48;;
74042;SDS011;62384;53.600;10.040;2023-03-23T01:09:37;21.63;;;9.73;;
74042;SDS011;62384;53.600;10.040;2023-03-23T01:12:04;17.05;;;8.52;;
74042;SDS011;62384;53.600;10.040;2023-03-23T01:14:30;17.95;;;8.10;;
74042;SDS011;62384;53.600;10.040;2023-03-23T01:16:56;16.10;;;8.35;;
74042;SDS011;62384;53.600;10.040;2023-03-23T01:19:22;17.17;;;7.90;;
74042;SDS011;62384;53.600;10.040;2023-03-23T01:21:48;18.33;;;8.38;;
74042;SDS011;62384;53.600;10.040;2023-03-23T01:24:13;17.88;;;8.75;;
74042;SDS011;62384;53.600;10.040;2023-03-23T01:26:38;14.95;;;7.78;;
74042;SDS011;62384;53.600;10.040;2023-03-23T01:29:04;18.60;;;7.90;;
74042;SDS011;62384;53.600;10.040;2023-03-23T01:31:29;14.90;;;7.72;;
74042;SDS011;62384;53.600;10.040;2023-03-23T01:33:55;18.55;;;9.40;;
74042;SDS011;62384;53.600;10.040;2023-03-23T01:36:23;18.88;;;7.85;;
74042;SDS011;62384;53.600;10.040;2023-03-23T01:38:51;21.27;;;9.93;;
74042;SDS011;62384;53.600;10.040;2023-03-23T01:41:17;19.70;;;8.55;;
74042;SDS011;62384;53.600;10.040;2023-03-23T01:46:33;20.33;;;10.25;;
74042;SDS011;62384;53.600;10.040;2023-03-23T01:49:05;21.75;;;10.02;;
74042;SDS011;62384;53.600;10.040;2023-03-23T01:51:39;22.33;;;8.98;;
74042;SDS011;62384;53.600;10.040;2023-03-23T01:54:08;17.92;;;9.15;;
74042;SDS011;62384;53.600;10.040;2023-03-23T01:56:39;20.08;;;9.77;;
74042;SDS011;62384;53.600;10.040;2023-03-23T01:59:10;22.67;;;10.13;;
74042;SDS011;62384;53.600;10.040;2023-03-23T02:01:36;22.40;;;9.75;;
74042;SDS011;62384;53.600;10.040;2023-03-23T02:04:08;22.05;;;10.55;;
74042;SDS011;62384;53.600;10.040;2023-03-23T02:06:34;22.73;;;10.27;;
74042;SDS011;62384;53.600;10.040;2023-03-23T02:08:59;21.65;;;9.90;;
74042;SDS011;62384;53.600;10.040;2023-03-23T02:11:25;22.38;;;9.95;;
74042;SDS011;62384;53.600;10.040;2023-03-23T02:13:50;21.17;;;9.40;;
74042;SDS011;62384;53.600;10.040;2023-03-23T02:24:40;20.45;;;9.25;;
74042;SDS011;62384;53.600;10.040;2023-03-23T02:36:01;19.80;;;9.88;;
74042;SDS011;62384;53.600;10.040;2023-03-23T02:38:37;17.55;;;8.88;;
74042;SDS011;62384;53.600;10.040;2023-03-23T02:41:08;21.27;;;8.98;;
74042;SDS011;62384;53.600;10.040;2023-03-23T02:43:39;18.58;;;8.82;;
74042;SDS011;62384;53.600;10.040;2023-03-23T02:49:29;19.03;;;9.20;;
74042;SDS011;62384;53.600;10.040;2023-03-23T02:51:59;19.20;;;8.82;;
74042;SDS011;62384;53.600;10.040;2023-03-23T02:54:25;19.38;;;8.90;;
74042;SDS011;62384;53.600;10.040;2023-03-23T02:56:53;17.13;;;9.00;;
74042;SDS011;62384;53.600;10.040;2023-03-23T02:59:19;17.92;;;9.65;;
74042;SDS011;62384;53.600;10.040;2023-03-23T03:01:48;13.80;;;7.50;;
74042;SDS011;62384;53.600;10.040;2023-03-23T03:04:20;17.42;;;8.18;;
74042;SDS011;62384;53.600;10.040;2023-03-23T03:07:01;15.10;;;8.85;;
74042;SDS011;62384;53.600;10.040;2023-03-23T03:09:55;17.60;;;8.98;;
74042;SDS011;62384;53.600;10.040;2023-03-23T03:18:07;19.25;;;8.95;;
74042;SDS011;62384;53.600;10.040;2023-03-23T03:20:40;16.90;;;8.77;;
74042;SDS011;62384;53.600;10.040;2023-03-23T03:23:11;15.63;;;9.57;;
74042;SDS011;62384;53.600;10.040;2023-03-23T03:25:38;16.17;;;8.40;;
74042;SDS011;62384;53.600;10.040;2023-03-23T03:28:05;14.20;;;8.05;;
74042;SDS011;62384;53.600;10.040;2023-03-23T03:30:31;14.75;;;8.55;;
74042;SDS011;62384;53.600;10.040;2023-03-23T03:33:00;17.70;;;8.95;;
74042;SDS011;62384;53.600;10.040;2023-03-23T03:35:28;15.65;;;7.97;;
74042;SDS011;62384;53.600;10.040;2023-03-23T03:37:56;18.63;;;9.43;;
74042;SDS011;62384;53.600;10.040;2023-03-23T03:40:23;16.17;;;9.63;;
74042;SDS011;62384;53.600;10.040;2023-03-23T03:42:48;16.73;;;9.30;;
74042;SDS011;62384;53.600;10.040;2023-03-23T03:45:15;15.32;;;9.10;;
74042;SDS011;62384;53.600;10.040;2023-03-23T03:47:42;16.77;;;8.90;;
74042;SDS011;62384;53.600;10.040;2023-03-23T03:50:08;22.73;;;9.52;;
74042;SDS011;62384;53.600;10.040;2023-03-23T03:52:34;18.42;;;8.88;;
74042;SDS011;62384;53.600;10.040;2023-03-23T03:55:03;18.88;;;8.68;;
74042;SDS011;62384;53.600;10.040;2023-03-23T03:57:29;17.52;;;8.65;;
74042;SDS011;62384;53.600;10.040;2023-03-23T03:59:55;16.55;;;8.10;;
74042;SDS011;62384;53.600;10.040;2023-03-23T04:02:21;18.48;;;9.40;;
74042;SDS011;62384;53.600;10.040;2023-03-23T04:04:47;14.80;;;8.25;;
74042;SDS011;62384;53.600;10.040;2023-03-23T04:07:18;14.00;;;8.18;;
74042;SDS011;62384;53.600;10.040;2023-03-23T04:09:44;14.82;;;6.97;;
74042;SDS011;62384;53.600;10.040;2023-03-23T04:12:13;12.32;;;7.50;;
74042;SDS011;62384;53.600;10.040;2023-03-23T04:14:44;15.93;;;8.45;;
74042;SDS011;62384;53.600;10.040;2023-03-23T04:17:09;14.20;;;8.32;;
74042;SDS011;62384;53.600;10.040;2023-03-23T04:19:35;20.58;;;9.82;;
74042;SDS011;62384;53.600;10.040;2023-03-23T04:22:01;15.73;;;8.02;;
74042;SDS011;62384;53.600;10.040;2023-03-23T04:24:27;17.35;;;8.55;;
74042;SDS011;62384;53.600;10.040;2023-03-23T04:26:56;12.55;;;8.30;;
74042;SDS011;62384;53.600;10.040;2023-03-23T04:29:21;19.05;;;9.43;;
74042;SDS011;62384;53.600;10.040;2023-03-23T04:31:49;18.13;;;8.18;;
74042;SDS011;62384;53.600;10.040;2023-03-23T04:34:15;16.13;;;8.20;;
74042;SDS011;62384;53.600;10.040;2023-03-23T04:36:41;14.95;;;8.57;;
74042;SDS011;62384;53.600;10.040;2023-03-23T04:39:07;16.27;;;8.43;;
74042;SDS011;62384;53.600;10.040;2023-03-23T04:41:35;14.43;;;8.18;;
74042;SDS011;62384;53.600;10.040;2023-03-23T04:44:01;17.95;;;8.90;;
74042;SDS011;62384;53.600;10.040;2023-03-23T04:46:29;14.57;;;9.02;;
74042;SDS011;62384;53.600;10.040;2023-03-23T04:48:55;18.10;;;9.13;;
74042;SDS011;62384;53.600;10.040;2023-03-23T04:51:23;14.80;;;8.77;;
74042;SDS011;62384;53.600;10.040;2023-03-23T04:53:49;13.65;;;8.27;;
74042;SDS011;62384;53.600;10.040;2023-03-23T04:56:15;15.65;;;7.45;;
74042;SDS011;62384;53.600;10.040;2023-03-23T04:58:40;15.82;;;8.82;;
74042;SDS011;62384;53.600;10.040;2023-03-23T05:01:05;14.93;;;8.57;;
74042;SDS011;62384;53.600;10.040;2023-03-23T05:03:31;14.82;;;7.95;;
74042;SDS011;62384;53.600;10.040;2023-03-23T05:05:56;13.15;;;7.75;;
74042;SDS011;62384;53.600;10.040;2023-03-23T05:08:23;15.63;;;8.40;;
74042;SDS011;62384;53.600;10.040;2023-03-23T05:10:55;14.70;;;8.57;;
74042;SDS011;62384;53.600;10.040;2023-03-23T05:13:22;13.80;;;8.32;;
74042;SDS011;62384;53.600;10.040;2023-03-23T05:15:48;15.68;;;8.73;;
74042;SDS011;62384;53.600;10.040;2023-03-23T05:18:14;15.55;;;8.60;;
74042;SDS011;62384;53.600;10.040;2023-03-23T05:20:40;16.90;;;9.50;;
74042;SDS011;62384;53.600;10.040;2023-03-23T05:23:07;14.70;;;8.85;;
74042;SDS011;62384;53.600;10.040;2023-03-23T05:25:32;14.95;;;8.13;;
74042;SDS011;62384;53.600;10.040;2023-03-23T05:28:01;15.93;;;8.85;;
74042;SDS011;62384;53.600;10.040;2023-03-23T05:30:27;16.45;;;8.38;;
74042;SDS011;62384;53.600;10.040;2023-03-23T05:32:52;14.02;;;8.52;;
74042;SDS011;62384;53.600;10.040;2023-03-23T05:35:18;17.17;;;8.82;;
74042;SDS011;62384;53.600;10.040;2023-03-23T05:37:44;13.65;;;7.65;;
74042;SDS011;62384;53.600;10.040;2023-03-23T05:40:10;14.60;;;7.93;;
74042;SDS011;62384;53.600;10.040;2023-03-23T05:42:37;15.48;;;7.65;;
74042;SDS011;62384;53.600;10.040;2023-03-23T05:45:03;15.05;;;7.47;;
74042;SDS011;62384;53.600;10.040;2023-03-23T05:47:29;11.73;;;7.60;;
74042;SDS011;62384;53.600;10.040;2023-03-23T05:49:55;13.32;;;7.45;;
74042;SDS011;62384;53.600;10.040;2023-03-23T05:52:21;12.68;;;7.00;;
74042;SDS011;62384;53.600;10.040;2023-03-23T05:54:48;17.55;;;6.47;;
74042;SDS011;62384;53.600;10.040;2023-03-23T05:57:14;10.43;;;6.35;;
74042;SDS011;62384;53.600;10.040;2023-03-23T05:59:39;11.00;;;5.82;;
74042;SDS011;62384;53.600;10.040;2023-03-23T06:02:04;11.35;;;6.28;;
74042;SDS011;62384;53.600;10.040;2023-03-23T06:04:30;11.23;;;6.75;;
74042;SDS011;62384;53.600;10.040;2023-03-23T06:06:58;10.38;;;6.00;;
74042;SDS011;62384;53.600;10.040;2023-03-23T06:09:23;10.27;;;6.07;;
74042;SDS011;62384;53.600;10.040;2023-03-23T06:11:49;9.65;;;6.30;;
74042;SDS011;62384;53.600;10.040;2023-03-23T06:14:15;12.02;;;5.85;;
74042;SDS011;62384;53.600;10.040;2023-03-23T06:16:43;9.27;;;5.72;;
74042;SDS011;62384;53.600;10.040;2023-03-23T06:19:08;11.68;;;5.40;;
74042;SDS011;62384;53.600;10.040;2023-03-23T06:21:34;10.00;;;5.03;;
74042;SDS011;62384;53.600;10.040;2023-03-23T06:23:59;9.93;;;5.80;;
74042;SDS011;62384;53.600;10.040;2023-03-23T06:26:32;10.93;;;4.72;;
74042;SDS011;62384;53.600;10.040;2023-03-23T06:29:00;9.32;;;4.88;;
74042;SDS011;62384;53.600;10.040;2023-03-23T06:31:26;18.67;;;4.97;;
74042;SDS011;62384;53.600;10.040;2023-03-23T06:33:55;13.32;;;5.53;;
74042;SDS011;62384;53.600;10.040;2023-03-23T06:36:21;9.27;;;5.07;;
74042;SDS011;62384;53.600;10.040;2023-03-23T06:38:47;9.95;;;6.05;;
74042;SDS011;62384;53.600;10.040;2023-03-23T06:41:15;8.15;;;5.13;;
74042;SDS011;62384;53.600;10.040;2023-03-23T06:43:41;9.25;;;4.20;;
74042;SDS011;62384;53.600;10.040;2023-03-23T06:46:09;7.60;;;4.22;;
74042;SDS011;62384;53.600;10.040;2023-03-23T06:48:34;7.47;;;4.03;;
74042;SDS011;62384;53.600;10.040;2023-03-23T06:51:00;7.88;;;4.25;;
74042;SDS011;62384;53.600;10.040;2023-03-23T06:53:27;8.38;;;4.18;;
74042;SDS011;62384;53.600;10.040;2023-03-23T06:55:53;9.40;;;4.28;;
74042;SDS011;62384;53.600;10.040;2023-03-23T06:58:18;6.65;;;3.78;;
74042;SDS011;62384;53.600;10.040;2023-03-23T07:00:43;6.72;;;3.53;;
74042;SDS011;62384;53.600;10.040;2023-03-23T07:03:09;8.40;;;3.65;;
74042;SDS011;62384;53.600;10.040;2023-03-23T07:05:35;8.20;;;4.00;;
74042;SDS011;62384;53.600;10.040;2023-03-23T07:08:03;8.93;;;3.97;;
74042;SDS011;62384;53.600;10.040;2023-03-23T07:10:29;8.55;;;3.40;;
74042;SDS011;62384;53.600;10.040;2023-03-23T07:12:54;7.40;;;3.65;;
74042;SDS011;62384;53.600;10.040;2023-03-23T07:15:20;5.88;;;3.60;;
74042;SDS011;62384;53.600;10.040;2023-03-23T07:17:47;12.65;;;3.35;;
74042;SDS011;62384;53.600;10.040;2023-03-23T07:20:13;4.70;;;2.78;;
74042;SDS011;62384;53.600;10.040;2023-03-23T07:22:39;7.60;;;3.08;;
74042;SDS011;62384;53.600;10.040;2023-03-23T07:25:04;6.40;;;3.15;;
74042;SDS011;62384;53.600;10.040;2023-03-23T07:27:30;6.15;;;3.30;;
74042;SDS011;62384;53.600;10.040;2023-03-23T07:29:56;5.00;;;3.25;;
74042;SDS011;62384;53.600;10.040;2023-03-23T07:32:22;8.48;;;3.50;;
74042;SDS011;62384;53.600;10.040;2023-03-23T07:34:48;5.63;;;3.45;;
74042;SDS011;62384;53.600;10.040;2023-03-23T07:37:13;6.32;;;3.30;;
74042;SDS011;62384;53.600;10.040;2023-03-23T07:39:38;6.50;;;2.97;;
74042;SDS011;62384;53.600;10.040;2023-03-23T07:42:05;7.35;;;3.35;;
74042;SDS011;62384;53.600;10.040;2023-03-23T07:44:32;7.93;;;2.90;;
74042;SDS011;62384;53.600;10.040;2023-03-23T07:46:57;5.93;;;3.03;;
74042;SDS011;62384;53.600;10.040;2023-03-23T07:49:23;5.30;;;3.33;;
74042;SDS011;62384;53.600;10.040;2023-03-23T07:51:54;5.15;;;3.38;;
74042;SDS011;62384;53.600;10.040;2023-03-23T07:54:20;5.28;;;2.92;;
74042;SDS011;62384;53.600;10.040;2023-03-23T07:56:46;8.20;;;3.40;;
74042;SDS011;62384;53.600;10.040;2023-03-23T07:59:11;8.85;;;4.20;;
74042;SDS011;62384;53.600;10.040;2023-03-23T08:01:37;10.10;;;4.38;;
74042;SDS011;62384;53.600;10.040;2023-03-23T08:04:04;10.13;;;4.35;;
74042;SDS011;62384;53.600;10.040;2023-03-23T08:06:31;7.50;;;4.10;;
74042;SDS011;62384;53.600;10.040;2023-03-23T08:09:00;7.38;;;4.50;;
74042;SDS011;62384;53.600;10.040;2023-03-23T08:11:27;8.73;;;4.50;;
74042;SDS011;62384;53.600;10.040;2023-03-23T08:13:53;11.25;;;4.78;;
74042;SDS011;62384;53.600;10.040;2023-03-23T08:16:18;17.50;;;5.55;;
74042;SDS011;62384;53.600;10.040;2023-03-23T08:18:47;8.38;;;5.50;;
74042;SDS011;62384;53.600;10.040;2023-03-23T08:21:15;7.70;;;5.10;;
74042;SDS011;62384;53.600;10.040;2023-03-23T08:23:40;12.68;;;5.95;;
74042;SDS011;62384;53.600;10.040;2023-03-23T08:26:07;7.47;;;5.35;;
74042;SDS011;62384;53.600;10.040;2023-03-23T08:28:33;11.82;;;6.25;;
74042;SDS011;62384;53.600;10.040;2023-03-23T08:31:00;28.15;;;5.20;;
74042;SDS011;62384;53.600;10.040;2023-03-23T08:33:34;8.13;;;4.57;;
74042;SDS011;62384;53.600;10.040;2023-03-23T08:36:03;10.05;;;2.45;;
74042;SDS011;62384;53.600;10.040;2023-03-23T08:38:29;3.25;;;1.80;;
74042;SDS011;62384;53.600;10.040;2023-03-23T08:40:59;2.83;;;1.90;;
74042;SDS011;62384;53.600;10.040;2023-03-23T08:43:25;3.53;;;2.22;;
74042;SDS011;62384;53.600;10.040;2023-03-23T08:45:52;4.20;;;2.05;;
74042;SDS011;62384;53.600;10.040;2023-03-23T08:48:18;4.38;;;2.00;;
74042;SDS011;62384;53.600;10.040;2023-03-23T08:50:44;4.45;;;1.90;;
74042;SDS011;62384;53.600;10.040;2023-03-23T08:53:09;4.28;;;2.30;;
74042;SDS011;62384;53.600;10.040;2023-03-23T08:55:35;4.43;;;1.70;;
74042;SDS011;62384;53.600;10.040;2023-03-23T08:58:00;3.20;;;1.77;;
74042;SDS011;62384;53.600;10.040;2023-03-23T09:00:26;7.50;;;2.22;;
74042;SDS011;62384;53.600;10.040;2023-03-23T09:02:52;4.57;;;1.80;;
74042;SDS011;62384;53.600;10.040;2023-03-23T09:05:21;5.32;;;2.33;;
74042;SDS011;62384;53.600;10.040;2023-03-23T09:07:49;5.78;;;2.50;;
74042;SDS011;62384;53.600;10.040;2023-03-23T09:10:18;5.15;;;2.70;;
74042;SDS011;62384;53.600;10.040;2023-03-23T09:12:45;6.22;;;2.20;;
74042;SDS011;62384;53.600;10.040;2023-03-23T09:15:12;6.15;;;2.33;;
74042;SDS011;62384;53.600;10.040;2023-03-23T09:17:40;5.50;;;2.28;;
74042;SDS011;62384;53.600;10.040;2023-03-23T09:20:08;4.70;;;1.98;;
74042;SDS011;62384;53.600;10.040;2023-03-23T09:22:36;4.95;;;1.83;;
74042;SDS011;62384;53.600;10.040;2023-03-23T09:25:04;4.10;;;1.75;;
74042;SDS011;62384;53.600;10.040;2023-03-23T09:27:29;4.05;;;1.95;;
74042;SDS011;62384;53.600;10.040;2023-03-23T09:29:55;7.43;;;1.95;;
74042;SDS011;62384;53.600;10.040;2023-03-23T09:32:20;3.78;;;1.73;;
74042;SDS011;62384;53.600;10.040;2023-03-23T09:34:47;6.80;;;1.50;;
74042;SDS011;62384;53.600;10.040;2023-03-23T09:37:13;7.95;;;1.85;;
74042;SDS011;62384;53.600;10.040;2023-03-23T09:39:39;5.97;;;1.38;;
74042;SDS011;62384;53.600;10.040;2023-03-23T09:50:31;10.93;;;1.38;;
74042;SDS011;62384;53.600;10.040;2023-03-23T09:53:08;9.70;;;1.73;;
74042;SDS011;62384;53.600;10.040;2023-03-23T09:55:39;5.03;;;0.95;;
74042;SDS011;62384;53.600;10.040;2023-03-23T10:01:00;8.55;;;1.40;;
74042;SDS011;62384;53.600;10.040;2023-03-23T10:03:36;13.63;;;1.80;;
74042;SDS011;62384;53.600;10.040;2023-03-23T10:06:04;7.18;;;1.52;;
74042;SDS011;62384;53.600;10.040;2023-03-23T10:08:32;7.63;;;1.67;;
74042;SDS011;62384;53.600;10.040;2023-03-23T10:11:02;7.25;;;1.30;;
74042;SDS011;62384;53.600;10.040;2023-03-23T10:16:34;5.65;;;1.85;;
74042;SDS011;62384;53.600;10.040;2023-03-23T10:21:58;5.25;;;1.35;;
74042;SDS011;62384;53.600;10.040;2023-03-23T10:27:29;8.90;;;1.63;;
74042;SDS011;62384;53.600;10.040;2023-03-23T10:30:03;5.72;;;1.52;;
74042;SDS011;62384;53.600;10.040;2023-03-23T10:32:44;3.83;;;1.23;;
74042;SDS011;62384;53.600;10.040;2023-03-23T10:35:16;8.57;;;1.77;;
74042;SDS011;62384;53.600;10.040;2023-03-23T10:37:50;6.07;;;1.60;;
74042;SDS011;62384;53.600;10.040;2023-03-23T10:40:23;8.95;;;2.13;;
74042;SDS011;62384;53.600;10.040;2023-03-23T10:42:53;2.67;;;1.07;;
74042;SDS011;62384;53.600;10.040;2023-03-23T10:45:26;8.88;;;1.35;;
74042;SDS011;62384;53.600;10.040;2023-03-23T10:50:43;6.35;;;1.45;;
74042;SDS011;62384;53.600;10.040;2023-03-23T10:53:16;6.47;;;1.55;;
74042;SDS011;62384;53.600;10.040;2023-03-23T10:55:46;9.15;;;1.30;;
74042;SDS011;62384;53.600;10.040;2023-03-23T10:58:21;10.23;;;1.70;;
74042;SDS011;62384;53.600;10.040;2023-03-23T11:00:53;6.88;;;1.27;;
74042;SDS011;62384;53.600;10.040;2023-03-23T11:03:24;9.88;;;1.50;;
74042;SDS011;62384;53.600;10.040;2023-03-23T11:05:58;5.68;;;1.38;;
74042;SDS011;62384;53.600;10.040;2023-03-23T11:08:27;6.72;;;1.25;;
74042;SDS011;62384;53.600;10.040;2023-03-23T11:11:06;7.55;;;1.88;;
74042;SDS011;62384;53.600;10.040;2023-03-23T11:13:39;5.00;;;1.40;;
74042;SDS011;62384;53.600;10.040;2023-03-23T11:16:32;9.88;;;1.45;;
74042;SDS011;62384;53.600;10.040;2023-03-23T11:19:00;5.07;;;1.55;;
74042;SDS011;62384;53.600;10.040;2023-03-23T11:21:36;5.28;;;0.95;;
74042;SDS011;62384;53.600;10.040;2023-03-23T11:24:03;9.35;;;1.88;;
74042;SDS011;62384;53.600;10.040;2023-03-23T11:26:33;4.43;;;1.30;;
74042;SDS011;62384;53.600;10.040;2023-03-23T11:29:16;5.20;;;1.40;;
74042;SDS011;62384;53.600;10.040;2023-03-23T11:34:21;8.75;;;1.52;;
74042;SDS011;62384;53.600;10.040;2023-03-23T11:36:52;12.75;;;1.35;;
74042;SDS011;62384;53.600;10.040;2023-03-23T11:39:25;8.70;;;1.45;;
74042;SDS011;62384;53.600;10.040;2023-03-23T11:42:12;6.60;;;1.60;;
74042;SDS011;62384;53.600;10.040;2023-03-23T11:44:43;7.03;;;1.33;;
74042;SDS011;62384;53.600;10.040;2023-03-23T11:47:25;9.07;;;1.50;;
74042;SDS011;62384;53.600;10.040;2023-03-23T11:50:00;8.90;;;1.90;;
74042;SDS011;62384;53.600;10.040;2023-03-23T11:52:38;11.20;;;1.48;;
74042;SDS011;62384;53.600;10.040;2023-03-23T11:55:10;6.72;;;1.77;;
74042;SDS011;62384;53.600;10.040;2023-03-23T11:57:37;6.63;;;2.17;;
74042;SDS011;62384;53.600;10.040;2023-03-23T12:00:13;12.02;;;2.28;;
74042;SDS011;62384;53.600;10.040;2023-03-23T12:05:37;11.07;;;2.30;;
74042;SDS011;62384;53.600;10.040;2023-03-23T12:19:18;6.43;;;2.15;;
74042;SDS011;62384;53.600;10.040;2023-03-23T12:29:57;7.38;;;2.72;;
74042;SDS011;62384;53.600;10.040;2023-03-23T12:42:54;11.40;;;3.47;;
74042;SDS011;62384;53.600;10.040;2023-03-23T12:48:35;7.82;;;3.28;;
74042;SDS011;62384;53.600;10.040;2023-03-23T12:53:52;14.45;;;3.50;;
74042;SDS011;62384;53.600;10.040;2023-03-23T12:59:15;12.93;;;3.05;;
74042;SDS011;62384;53.600;10.040;2023-03-23T13:01:47;8.82;;;3.17;;
74042;SDS011;62384;53.600;10.040;2023-03-23T13:06:51;7.90;;;2.63;;
74042;SDS011;62384;53.600;10.040;2023-03-23T13:12:19;4.95;;;2.00;;
74042;SDS011;62384;53.600;10.040;2023-03-23T13:25:15;4.93;;;1.73;;
74042;SDS011;62384;53.600;10.040;2023-03-23T13:28:00;8.48;;;2.20;;
74042;SDS011;62384;53.600;10.040;2023-03-23T13:30:28;8.10;;;2.00;;
74042;SDS011;62384;53.600;10.040;2023-03-23T13:33:03;9.05;;;2.25;;
74042;SDS011;62384;53.600;10.040;2023-03-23T13:35:37;9.85;;;2.45;;
74042;SDS011;62384;53.600;10.040;2023-03-23T13:38:38;10.20;;;1.65;;
74042;SDS011;62384;53.600;10.040;2023-03-23T13:40:57;6.63;;;2.53;;
74042;SDS011;62384;53.600;10.040;2023-03-23T13:43:30;8.57;;;2.22;;
74042;SDS011;62384;53.600;10.040;2023-03-23T13:46:11;4.10;;;2.00;;
74042;SDS011;62384;53.600;10.040;2023-03-23T13:48:41;5.65;;;2.10;;
74042;SDS011;62384;53.600;10.040;2023-03-23T13:51:23;5.63;;;1.70;;
74042;SDS011;62384;53.600;10.040;2023-03-23T13:54:19;6.47;;;2.17;;
74042;SDS011;62384;53.600;10.040;2023-03-23T14:13:39;5.28;;;1.15;;
74042;SDS011;62384;53.600;10.040;2023-03-23T14:16:22;4.03;;;1.10;;
74042;SDS011;62384;53.600;10.040;2023-03-23T14:18:59;1.88;;;0.82;;
74042;SDS011;62384;53.600;10.040;2023-03-23T14:21:31;5.22;;;1.10;;
74042;SDS011;62384;53.600;10.040;2023-03-23T14:24:12;5.50;;;1.40;;
74042;SDS011;62384;53.600;10.040;2023-03-23T14:26:41;3.53;;;1.45;;
74042;SDS011;62384;53.600;10.040;2023-03-23T14:29:09;2.65;;;0.80;;
74042;SDS011;62384;53.600;10.040;2023-03-23T14:31:35;7.88;;;1.45;;
74042;SDS011;62384;53.600;10.040;2023-03-23T14:34:03;2.97;;;1.15;;
74042;SDS011;62384;53.600;10.040;2023-03-23T14:36:37;2.35;;;1.00;;
74042;SDS011;62384;53.600;10.040;2023-03-23T14:39:04;5.57;;;1.00;;
74042;SDS011;62384;53.600;10.040;2023-03-23T14:41:38;5.18;;;0.80;;
74042;SDS011;62384;53.600;10.040;2023-03-23T14:44:05;3.13;;;0.90;;
74042;SDS011;62384;53.600;10.040;2023-03-23T14:46:34;3.58;;;0.98;;
74042;SDS011;62384;53.600;10.040;2023-03-23T14:49:01;9.32;;;1.73;;
74042;SDS011;62384;53.600;10.040;2023-03-23T14:51:28;3.20;;;0.75;;
74042;SDS011;62384;53.600;10.040;2023-03-23T14:53:54;3.20;;;0.70;;
74042;SDS011;62384;53.600;10.040;2023-03-23T14:56:20;3.50;;;0.80;;
74042;SDS011;62384;53.600;10.040;2023-03-23T14:58:49;4.13;;;0.82;;
74042;SDS011;62384;53.600;10.040;2023-03-23T15:01:20;4.20;;;1.00;;
74042;SDS011;62384;53.600;10.040;2023-03-23T15:03:53;1.98;;;0.88;;
74042;SDS011;62384;53.600;10.040;2023-03-23T15:06:22;3.50;;;1.15;;
74042;SDS011;62384;53.600;10.040;2023-03-23T15:08:52;2.30;;;0.55;;
74042;SDS011;62384;53.600;10.040;2023-03-23T15:11:22;3.60;;;0.80;;
74042;SDS011;62384;53.600;10.040;2023-03-23T15:13:53;1.20;;;0.65;;
74042;SDS011;62384;53.600;10.040;2023-03-23T15:16:23;5.28;;;1.13;;
74042;SDS011;62384;53.600;10.040;2023-03-23T15:18:54;1.55;;;0.82;;
74042;SDS011;62384;53.600;10.040;2023-03-23T15:21:33;7.32;;;1.48;;
74042;SDS011;62384;53.600;10.040;2023-03-23T15:24:02;3.28;;;0.88;;
74042;SDS011;62384;53.600;10.040;2023-03-23T15:26:43;4.63;;;1.00;;
74042;SDS011;62384;53.600;10.040;2023-03-23T15:34:29;1.58;;;1.02;;
74042;SDS011;62384;53.600;10.040;2023-03-23T15:37:18;6.97;;;1.85;;
74042;SDS011;62384;53.600;10.040;2023-03-23T15:39:46;3.70;;;1.60;;
74042;SDS011;62384;53.600;10.040;2023-03-23T15:42:22;2.97;;;1.38;;
74042;SDS011;62384;53.600;10.040;2023-03-23T15:44:55;8.55;;;1.15;;
74042;SDS011;62384;53.600;10.040;2023-03-23T15:47:33;4.47;;;1.10;;
74042;SDS011;62384;53.600;10.040;2023-03-23T15:50:03;7.05;;;1.50;;
74042;SDS011;62384;53.600;10.040;2023-03-23T15:52:35;5.05;;;1.23;;
74042;SDS011;62384;53.600;10.040;2023-03-23T15:55:00;3.47;;;1.27;;
74042;SDS011;62384;53.600;10.040;2023-03-23T15:57:25;4.88;;;1.52;;
74042;SDS011;62384;53.600;10.040;2023-03-23T15:59:51;4.00;;;1.25;;
74042;SDS011;62384;53.600;10.040;2023-03-23T16:02:21;8.65;;;2.20;;
74042;SDS011;62384;53.600;10.040;2023-03-23T16:04:49;2.55;;;0.90;;
74042;SDS011;62384;53.600;10.040;2023-03-23T16:07:15;2.80;;;1.00;;
74042;SDS011;62384;53.600;10.040;2023-03-23T16:09:43;7.10;;;1.40;;
74042;SDS011;62384;53.600;10.040;2023-03-23T16:12:10;2.90;;;1.42;;
74042;SDS011;62384;53.600;10.040;2023-03-23T16:14:37;7.53;;;2.45;;
74042;SDS011;62384;53.600;10.040;2023-03-23T16:17:03;11.23;;;2.05;;
74042;SDS011;62384;53.600;10.040;2023-03-23T16:19:29;5.63;;;1.73;;
74042;SDS011;62384;53.600;10.040;2023-03-23T16:21:54;5.93;;;2.00;;
74042;SDS011;62384;53.600;10.040;2023-03-23T16:24:20;5.50;;;1.77;;
74042;SDS011;62384;53.600;10.040;2023-03-23T16:26:48;5.72;;;1.80;;
74042;SDS011;62384;53.600;10.040;2023-03-23T16:29:14;1.55;;;1.30;;
74042;SDS011;62384;53.600;10.040;2023-03-23T16:31:40;5.38;;;1.85;;
74042;SDS011;62384;53.600;10.040;2023-03-23T16:34:06;8.05;;;2.10;;
74042;SDS011;62384;53.600;10.040;2023-03-23T16:36:34;9.48;;;2.08;;
74042;SDS011;62384;53.600;10.040;2023-03-23T16:39:02;5.32;;;1.73;;
74042;SDS011;62384;53.600;10.040;2023-03-23T16:41:28;4.22;;;1.40;;
74042;SDS011;62384;53.600;10.040;2023-03-23T16:43:53;4.00;;;1.60;;
74042;SDS011;62384;53.600;10.040;2023-03-23T16:46:18;5.32;;;1.60;;
74042;SDS011;62384;53.600;10.040;2023-03-23T16:48:44;5.00;;;1.45;;
74042;SDS011;62384;53.600;10.040;2023-03-23T16:51:09;8.00;;;1.92;;